sensor_id;sensor_type;location;lat;lon;timestamp;P1;durP1;ratioP1;P2;durP2;ratioP2
50267;SDS011;36153;50.960;6.220;2023-03-01T00:01:37;6.88;;;4.40;;
50267;SDS011;36153;50.960;6.220;2023-03-01T00:04:39;7.57;;;4.55;;
50267;SDS011;36153;50.960;6.220;2023-03-01T00:07:40;7.43;;;4.60;;
50267;SDS011;36153;50.960;6.220;2023-03-01T00:10:42;11.85;;;4.93;;
50267;SDS011;36153;50.960;6.220;2023-03-01T00:13:44;9.50;;;4.32;;
50267;SDS011;36153;50.960;6.220;2023-03-01T00:16:49;5.65;;;3.92;;
50267;SDS011;36153;50.960;6.220;2023-03-01T00:19:51;5.43;;;3.83;;
50267;SDS011;36153;50.960;6.220;2023-03-01T00:22:53;7.15;;;5.05;;
50267;SDS011;36153;50.960;6.220;2023-03-01T00:25:54;9.27;;;4.30;;
50267;SDS011;36153;50.960;6.220;2023-03-01T00:28:56;6.90;;;4.75;;
50267;SDS011;36153;50.960;6.220;2023-03-01T00:31:59;8.57;;;5.43;;
50267;SDS011;36153;50.960;6.220;2023-03-01T00:35:00;10.45;;;4.45;;
50267;SDS011;36153;50.960;6.220;2023-03-01T00:38:05;9.38;;;4.97;;
50267;SDS011;36153;50.960;6.220;2023-03-01T00:41:10;6.88;;;4.70;;
50267;SDS011;36153;50.960;6.220;2023-03-01T00:44:14;7.55;;;4.80;;
50267;SDS011;36153;50.960;6.220;2023-03-01T00:47:14;7.10;;;4.22;;
50267;SDS011;36153;50.960;6.220;2023-03-01T00:50:15;11.38;;;4.75;;
50267;SDS011;36153;50.960;6.220;2023-03-01T00:53:16;10.02;;;5.07;;
50267;SDS011;36153;50.960;6.220;2023-03-01T00:56:16;12.48;;;4.72;;
50267;SDS011;36153;50.960;6.220;2023-03-01T00:59:17;6.85;;;4.60;;
50267;SDS011;36153;50.960;6.220;2023-03-01T01:02:18;9.02;;;4.97;;
50267;SDS011;36153;50.960;6.220;2023-03-01T01:05:19;12.38;;;5.40;;
50267;SDS011;36153;50.960;6.220;2023-03-01T01:08:22;9.13;;;5.30;;
50267;SDS011;36153;50.960;6.220;2023-03-01T01:11:23;9.82;;;5.28;;
50267;SDS011;36153;50.960;6.220;2023-03-01T01:14:24;6.93;;;5.30;;
50267;SDS011;36153;50.960;6.220;2023-03-01T01:17:25;8.00;;;5.15;;
50267;SDS011;36153;50.960;6.220;2023-03-01T01:20:25;7.68;;;4.75;;
50267;SDS011;36153;50.960;6.220;2023-03-01T01:23:26;6.50;;;4.78;;
50267;SDS011;36153;50.960;6.220;2023-03-01T01:26:27;10.18;;;5.10;;
50267;SDS011;36153;50.960;6.220;2023-03-01T01:29:29;7.80;;;5.05;;
50267;SDS011;36153;50.960;6.220;2023-03-01T01:32:29;8.63;;;5.55;;
50267;SDS011;36153;50.960;6.220;2023-03-01T01:35:30;7.40;;;5.15;;
50267;SDS011;36153;50.960;6.220;2023-03-01T01:38:33;8.63;;;5.70;;
50267;SDS011;36153;50.960;6.220;2023-03-01T01:41:34;11.00;;;6.00;;
50267;SDS011;36153;50.960;6.220;2023-03-01T01:44:34;9.20;;;5.90;;
50267;SDS011;36153;50.960;6.220;2023-03-01T01:47:35;9.32;;;5.82;;
50267;SDS011;36153;50.960;6.220;2023-03-01T01:50:35;10.57;;;5.63;;
50267;SDS011;36153;50.960;6.220;2023-03-01T01:53:38;8.93;;;5.45;;
50267;SDS011;36153;50.960;6.220;2023-03-01T01:56:41;5.18;;;4.65;;
50267;SDS011;36153;50.960;6.220;2023-03-01T01:59:49;7.60;;;4.90;;
50267;SDS011;36153;50.960;6.220;2023-03-01T02:02:56;11.85;;;4.60;;
50267;SDS011;36153;50.960;6.220;2023-03-01T02:06:06;6.18;;;5.43;;
50267;SDS011;36153;50.960;6.220;2023-03-01T02:09:28;8.00;;;5.50;;
50267;SDS011;36153;50.960;6.220;2023-03-01T02:12:31;10.88;;;6.10;;
50267;SDS011;36153;50.960;6.220;2023-03-01T02:15:33;10.32;;;5.82;;
50267;SDS011;36153;50.960;6.220;2023-03-01T02:18:35;9.30;;;4.95;;
50267;SDS011;36153;50.960;6.220;2023-03-01T02:22:22;9.23;;;6.13;;
50267;SDS011;36153;50.960;6.220;2023-03-01T02:25:32;7.88;;;5.43;;
50267;SDS011;36153;50.960;6.220;2023-03-01T02:28:37;8.75;;;5.05;;
50267;SDS011;36153;50.960;6.220;2023-03-01T02:31:40;6.65;;;4.65;;
50267;SDS011;36153;50.960;6.220;2023-03-01T02:34:43;10.38;;;5.75;;
50267;SDS011;36153;50.960;6.220;2023-03-01T02:37:44;8.43;;;5.80;;
50267;SDS011;36153;50.960;6.220;2023-03-01T02:40:45;8.10;;;5.07;;
50267;SDS011;36153;50.960;6.220;2023-03-01T02:43:45;7.50;;;5.25;;
50267;SDS011;36153;50.960;6.220;2023-03-01T02:46:51;9.10;;;6.03;;
50267;SDS011;36153;50.960;6.220;2023-03-01T02:49:52;9.85;;;6.03;;
50267;SDS011;36153;50.960;6.220;2023-03-01T02:56:23;8.05;;;5.45;;
50267;SDS011;36153;50.960;6.220;2023-03-01T02:59:29;7.88;;;5.38;;
50267;SDS011;36153;50.960;6.220;2023-03-01T03:02:31;7.78;;;5.53;;
50267;SDS011;36153;50.960;6.220;2023-03-01T03:08:36;6.90;;;4.87;;
50267;SDS011;36153;50.960;6.220;2023-03-01T03:11:37;10.00;;;6.45;;
50267;SDS011;36153;50.960;6.220;2023-03-01T03:14:39;8.75;;;5.78;;
50267;SDS011;36153;50.960;6.220;2023-03-01T03:17:42;9.95;;;4.95;;
50267;SDS011;36153;50.960;6.220;2023-03-01T03:20:43;10.32;;;5.70;;
50267;SDS011;36153;50.960;6.220;2023-03-01T03:23:44;9.70;;;6.60;;
50267;SDS011;36153;50.960;6.220;2023-03-01T03:26:44;9.20;;;5.78;;
50267;SDS011;36153;50.960;6.220;2023-03-01T03:29:45;8.88;;;6.28;;
50267;SDS011;36153;50.960;6.220;2023-03-01T03:32:46;8.00;;;6.43;;
50267;SDS011;36153;50.960;6.220;2023-03-01T03:35:53;10.55;;;6.22;;
50267;SDS011;36153;50.960;6.220;2023-03-01T03:38:53;12.23;;;5.85;;
50267;SDS011;36153;50.960;6.220;2023-03-01T03:41:54;11.90;;;5.60;;
50267;SDS011;36153;50.960;6.220;2023-03-01T03:44:57;9.02;;;6.03;;
50267;SDS011;36153;50.960;6.220;2023-03-01T03:47:57;10.27;;;5.45;;
50267;SDS011;36153;50.960;6.220;2023-03-01T03:50:58;13.15;;;5.68;;
50267;SDS011;36153;50.960;6.220;2023-03-01T03:53:58;8.18;;;5.90;;
50267;SDS011;36153;50.960;6.220;2023-03-01T03:56:58;8.07;;;5.50;;
50267;SDS011;36153;50.960;6.220;2023-03-01T03:59:59;9.43;;;6.22;;
50267;SDS011;36153;50.960;6.220;2023-03-01T04:02:59;7.95;;;5.45;;
50267;SDS011;36153;50.960;6.220;2023-03-01T04:06:00;8.95;;;6.38;;
50267;SDS011;36153;50.960;6.220;2023-03-01T04:09:01;10.68;;;6.28;;
50267;SDS011;36153;50.960;6.220;2023-03-01T04:12:04;7.95;;;6.13;;
50267;SDS011;36153;50.960;6.220;2023-03-01T04:15:06;8.52;;;6.65;;
50267;SDS011;36153;50.960;6.220;2023-03-01T04:18:14;9.45;;;5.72;;
50267;SDS011;36153;50.960;6.220;2023-03-01T04:21:15;9.13;;;5.82;;
50267;SDS011;36153;50.960;6.220;2023-03-01T04:24:16;9.45;;;6.30;;
50267;SDS011;36153;50.960;6.220;2023-03-01T04:27:16;9.02;;;5.75;;
50267;SDS011;36153;50.960;6.220;2023-03-01T04:30:17;7.90;;;5.55;;
50267;SDS011;36153;50.960;6.220;2023-03-01T04:33:17;9.50;;;6.32;;
50267;SDS011;36153;50.960;6.220;2023-03-01T04:36:19;10.15;;;5.78;;
50267;SDS011;36153;50.960;6.220;2023-03-01T04:39:22;8.32;;;6.30;;
50267;SDS011;36153;50.960;6.220;2023-03-01T04:42:22;9.73;;;5.60;;
50267;SDS011;36153;50.960;6.220;2023-03-01T04:45:23;9.20;;;5.75;;
50267;SDS011;36153;50.960;6.220;2023-03-01T04:48:23;8.95;;;6.40;;
50267;SDS011;36153;50.960;6.220;2023-03-01T04:51:23;11.18;;;6.68;;
50267;SDS011;36153;50.960;6.220;2023-03-01T04:54:24;11.27;;;6.60;;
50267;SDS011;36153;50.960;6.220;2023-03-01T04:57:24;10.32;;;6.05;;
50267;SDS011;36153;50.960;6.220;2023-03-01T05:00:25;9.60;;;6.53;;
50267;SDS011;36153;50.960;6.220;2023-03-01T05:03:25;9.30;;;7.13;;
50267;SDS011;36153;50.960;6.220;2023-03-01T05:06:26;11.60;;;7.22;;
50267;SDS011;36153;50.960;6.220;2023-03-01T05:09:26;10.80;;;7.03;;
50267;SDS011;36153;50.960;6.220;2023-03-01T05:12:26;8.10;;;6.60;;
50267;SDS011;36153;50.960;6.220;2023-03-01T05:15:28;8.32;;;6.28;;
50267;SDS011;36153;50.960;6.220;2023-03-01T05:18:30;10.98;;;6.80;;
50267;SDS011;36153;50.960;6.220;2023-03-01T05:21:32;8.25;;;6.50;;
50267;SDS011;36153;50.960;6.220;2023-03-01T05:24:34;8.98;;;6.60;;
50267;SDS011;36153;50.960;6.220;2023-03-01T05:27:35;13.13;;;7.63;;
50267;SDS011;36153;50.960;6.220;2023-03-01T05:30:36;10.75;;;6.40;;
50267;SDS011;36153;50.960;6.220;2023-03-01T05:33:39;8.35;;;5.80;;
50267;SDS011;36153;50.960;6.220;2023-03-01T05:36:41;11.48;;;5.65;;
50267;SDS011;36153;50.960;6.220;2023-03-01T05:39:48;10.32;;;6.80;;
50267;SDS011;36153;50.960;6.220;2023-03-01T05:42:52;9.70;;;7.90;;
50267;SDS011;36153;50.960;6.220;2023-03-01T05:45:57;9.60;;;5.50;;
50267;SDS011;36153;50.960;6.220;2023-03-01T05:48:58;10.35;;;6.43;;
50267;SDS011;36153;50.960;6.220;2023-03-01T05:52:00;9.10;;;6.50;;
50267;SDS011;36153;50.960;6.220;2023-03-01T05:55:01;11.77;;;5.75;;
50267;SDS011;36153;50.960;6.220;2023-03-01T05:58:03;8.43;;;5.75;;
50267;SDS011;36153;50.960;6.220;2023-03-01T06:01:11;9.05;;;6.95;;
50267;SDS011;36153;50.960;6.220;2023-03-01T06:04:13;12.05;;;6.47;;
50267;SDS011;36153;50.960;6.220;2023-03-01T06:07:15;13.10;;;6.80;;
50267;SDS011;36153;50.960;6.220;2023-03-01T06:10:17;10.50;;;7.00;;
50267;SDS011;36153;50.960;6.220;2023-03-01T06:13:18;12.35;;;8.07;;
50267;SDS011;36153;50.960;6.220;2023-03-01T06:16:19;12.07;;;6.75;;
50267;SDS011;36153;50.960;6.220;2023-03-01T06:19:20;8.30;;;6.40;;
50267;SDS011;36153;50.960;6.220;2023-03-01T06:22:21;17.23;;;7.68;;
50267;SDS011;36153;50.960;6.220;2023-03-01T06:25:23;11.75;;;6.57;;
50267;SDS011;36153;50.960;6.220;2023-03-01T06:28:25;8.57;;;6.60;;
50267;SDS011;36153;50.960;6.220;2023-03-01T06:31:25;9.68;;;6.45;;
50267;SDS011;36153;50.960;6.220;2023-03-01T06:34:26;11.48;;;7.75;;
50267;SDS011;36153;50.960;6.220;2023-03-01T06:37:27;10.95;;;6.68;;
50267;SDS011;36153;50.960;6.220;2023-03-01T06:40:28;10.13;;;6.70;;
50267;SDS011;36153;50.960;6.220;2023-03-01T06:43:31;10.23;;;7.57;;
50267;SDS011;36153;50.960;6.220;2023-03-01T06:46:31;14.05;;;6.97;;
50267;SDS011;36153;50.960;6.220;2023-03-01T06:49:32;9.80;;;6.18;;
50267;SDS011;36153;50.960;6.220;2023-03-01T06:52:32;10.52;;;6.45;;
50267;SDS011;36153;50.960;6.220;2023-03-01T06:55:33;11.63;;;7.57;;
50267;SDS011;36153;50.960;6.220;2023-03-01T06:58:34;15.90;;;7.50;;
50267;SDS011;36153;50.960;6.220;2023-03-01T07:01:34;11.50;;;7.50;;
50267;SDS011;36153;50.960;6.220;2023-03-01T07:04:35;9.00;;;5.63;;
50267;SDS011;36153;50.960;6.220;2023-03-01T07:07:35;11.82;;;6.47;;
50267;SDS011;36153;50.960;6.220;2023-03-01T07:10:36;13.27;;;7.05;;
50267;SDS011;36153;50.960;6.220;2023-03-01T07:13:36;12.63;;;6.78;;
50267;SDS011;36153;50.960;6.220;2023-03-01T07:16:37;14.15;;;7.22;;
50267;SDS011;36153;50.960;6.220;2023-03-01T07:19:38;11.45;;;6.45;;
50267;SDS011;36153;50.960;6.220;2023-03-01T07:22:39;10.18;;;5.45;;
50267;SDS011;36153;50.960;6.220;2023-03-01T07:28:44;15.23;;;7.00;;
50267;SDS011;36153;50.960;6.220;2023-03-01T07:31:44;11.00;;;7.15;;
50267;SDS011;36153;50.960;6.220;2023-03-01T07:34:45;11.43;;;6.78;;
50267;SDS011;36153;50.960;6.220;2023-03-01T07:37:47;10.10;;;6.50;;
50267;SDS011;36153;50.960;6.220;2023-03-01T07:40:47;10.25;;;6.35;;
50267;SDS011;36153;50.960;6.220;2023-03-01T07:43:48;10.75;;;7.55;;
50267;SDS011;36153;50.960;6.220;2023-03-01T07:46:49;14.07;;;8.93;;
50267;SDS011;36153;50.960;6.220;2023-03-01T07:49:52;14.43;;;7.50;;
50267;SDS011;36153;50.960;6.220;2023-03-01T07:52:52;13.43;;;8.23;;
50267;SDS011;36153;50.960;6.220;2023-03-01T07:56:03;15.32;;;8.43;;
50267;SDS011;36153;50.960;6.220;2023-03-01T07:59:04;11.93;;;6.88;;
50267;SDS011;36153;50.960;6.220;2023-03-01T08:02:05;13.98;;;7.57;;
50267;SDS011;36153;50.960;6.220;2023-03-01T08:05:06;18.45;;;8.60;;
50267;SDS011;36153;50.960;6.220;2023-03-01T08:08:06;20.83;;;9.95;;
50267;SDS011;36153;50.960;6.220;2023-03-01T08:11:07;14.98;;;9.23;;
50267;SDS011;36153;50.960;6.220;2023-03-01T08:14:10;13.02;;;8.60;;
50267;SDS011;36153;50.960;6.220;2023-03-01T08:17:13;11.38;;;8.20;;
50267;SDS011;36153;50.960;6.220;2023-03-01T08:20:14;14.88;;;8.77;;
50267;SDS011;36153;50.960;6.220;2023-03-01T08:23:15;11.27;;;7.78;;
50267;SDS011;36153;50.960;6.220;2023-03-01T08:26:16;10.90;;;6.25;;
50267;SDS011;36153;50.960;6.220;2023-03-01T08:29:18;13.10;;;7.60;;
50267;SDS011;36153;50.960;6.220;2023-03-01T08:32:18;11.15;;;7.80;;
50267;SDS011;36153;50.960;6.220;2023-03-01T08:35:19;11.57;;;7.30;;
50267;SDS011;36153;50.960;6.220;2023-03-01T08:38:20;13.00;;;8.07;;
50267;SDS011;36153;50.960;6.220;2023-03-01T08:41:20;13.95;;;8.80;;
50267;SDS011;36153;50.960;6.220;2023-03-01T08:44:21;15.30;;;6.63;;
50267;SDS011;36153;50.960;6.220;2023-03-01T08:47:21;15.13;;;7.65;;
50267;SDS011;36153;50.960;6.220;2023-03-01T08:50:22;14.98;;;8.10;;
50267;SDS011;36153;50.960;6.220;2023-03-01T08:53:24;15.52;;;7.78;;
50267;SDS011;36153;50.960;6.220;2023-03-01T08:56:24;20.45;;;8.70;;
50267;SDS011;36153;50.960;6.220;2023-03-01T08:59:25;16.50;;;8.13;;
50267;SDS011;36153;50.960;6.220;2023-03-01T09:02:26;15.45;;;7.97;;
50267;SDS011;36153;50.960;6.220;2023-03-01T09:05:26;16.50;;;9.02;;
50267;SDS011;36153;50.960;6.220;2023-03-01T09:08:27;13.02;;;7.97;;
50267;SDS011;36153;50.960;6.220;2023-03-01T09:11:28;14.68;;;8.32;;
50267;SDS011;36153;50.960;6.220;2023-03-01T09:14:29;17.15;;;7.85;;
50267;SDS011;36153;50.960;6.220;2023-03-01T09:17:29;13.55;;;7.85;;
50267;SDS011;36153;50.960;6.220;2023-03-01T09:20:30;13.10;;;7.97;;
50267;SDS011;36153;50.960;6.220;2023-03-01T09:23:31;14.02;;;7.63;;
50267;SDS011;36153;50.960;6.220;2023-03-01T09:26:31;13.10;;;8.00;;
50267;SDS011;36153;50.960;6.220;2023-03-01T09:29:32;19.65;;;8.38;;
50267;SDS011;36153;50.960;6.220;2023-03-01T09:32:32;15.73;;;9.55;;
50267;SDS011;36153;50.960;6.220;2023-03-01T09:35:33;13.90;;;8.13;;
50267;SDS011;36153;50.960;6.220;2023-03-01T09:38:33;20.88;;;9.23;;
50267;SDS011;36153;50.960;6.220;2023-03-01T09:41:48;16.70;;;8.15;;
50267;SDS011;36153;50.960;6.220;2023-03-01T09:44:57;12.73;;;8.00;;
50267;SDS011;36153;50.960;6.220;2023-03-01T09:48:02;16.45;;;8.30;;
50267;SDS011;36153;50.960;6.220;2023-03-01T09:51:06;14.93;;;7.78;;
50267;SDS011;36153;50.960;6.220;2023-03-01T09:54:12;23.45;;;9.48;;
50267;SDS011;36153;50.960;6.220;2023-03-01T10:00:53;14.20;;;7.45;;
50267;SDS011;36153;50.960;6.220;2023-03-01T10:04:08;15.65;;;8.75;;
50267;SDS011;36153;50.960;6.220;2023-03-01T10:10:40;15.55;;;8.98;;
50267;SDS011;36153;50.960;6.220;2023-03-01T10:13:59;16.27;;;8.18;;
50267;SDS011;36153;50.960;6.220;2023-03-01T10:23:43;11.23;;;7.15;;
50267;SDS011;36153;50.960;6.220;2023-03-01T10:29:50;14.13;;;7.55;;
50267;SDS011;36153;50.960;6.220;2023-03-01T10:32:53;16.30;;;8.75;;
50267;SDS011;36153;50.960;6.220;2023-03-01T10:35:54;13.90;;;7.75;;
50267;SDS011;36153;50.960;6.220;2023-03-01T10:38:55;16.75;;;8.27;;
50267;SDS011;36153;50.960;6.220;2023-03-01T10:48:27;15.32;;;8.05;;
50267;SDS011;36153;50.960;6.220;2023-03-01T10:51:28;12.23;;;6.65;;
50267;SDS011;36153;50.960;6.220;2023-03-01T10:54:29;17.38;;;8.57;;
50267;SDS011;36153;50.960;6.220;2023-03-01T10:57:35;18.35;;;8.38;;
50267;SDS011;36153;50.960;6.220;2023-03-01T11:00:51;14.27;;;8.23;;
50267;SDS011;36153;50.960;6.220;2023-03-01T11:07:05;15.60;;;8.75;;
50267;SDS011;36153;50.960;6.220;2023-03-01T11:10:11;15.35;;;8.05;;
50267;SDS011;36153;50.960;6.220;2023-03-01T11:13:18;13.77;;;9.05;;
50267;SDS011;36153;50.960;6.220;2023-03-01T11:16:26;13.10;;;8.38;;
50267;SDS011;36153;50.960;6.220;2023-03-01T11:19:35;14.52;;;8.07;;
50267;SDS011;36153;50.960;6.220;2023-03-01T11:22:35;14.68;;;9.10;;
50267;SDS011;36153;50.960;6.220;2023-03-01T11:25:37;11.82;;;7.65;;
50267;SDS011;36153;50.960;6.220;2023-03-01T11:28:41;16.15;;;8.27;;
50267;SDS011;36153;50.960;6.220;2023-03-01T11:31:44;15.63;;;8.30;;
50267;SDS011;36153;50.960;6.220;2023-03-01T11:34:48;15.18;;;8.43;;
50267;SDS011;36153;50.960;6.220;2023-03-01T11:41:28;14.48;;;7.75;;
50267;SDS011;36153;50.960;6.220;2023-03-01T11:44:33;13.70;;;8.77;;
50267;SDS011;36153;50.960;6.220;2023-03-01T11:50:48;14.20;;;8.80;;
50267;SDS011;36153;50.960;6.220;2023-03-01T13:50:33;11.20;;;6.80;;
50267;SDS011;36153;50.960;6.220;2023-03-01T13:54:33;14.80;;;7.53;;
50267;SDS011;36153;50.960;6.220;2023-03-01T13:57:35;12.85;;;7.53;;
50267;SDS011;36153;50.960;6.220;2023-03-01T14:00:39;12.40;;;7.75;;
50267;SDS011;36153;50.960;6.220;2023-03-01T14:03:41;12.00;;;7.60;;
50267;SDS011;36153;50.960;6.220;2023-03-01T14:06:42;9.57;;;6.50;;
50267;SDS011;36153;50.960;6.220;2023-03-01T14:09:43;9.93;;;6.63;;
50267;SDS011;36153;50.960;6.220;2023-03-01T14:12:55;11.10;;;6.78;;
50267;SDS011;36153;50.960;6.220;2023-03-01T14:19:27;10.00;;;6.43;;
50267;SDS011;36153;50.960;6.220;2023-03-01T14:22:33;9.43;;;5.82;;
50267;SDS011;36153;50.960;6.220;2023-03-01T14:38:38;6.93;;;4.80;;
